ESDF/RNB METAR and TAF weather

Enter ICAO airport designator
Station Type Date Time Source
ESDF METAR 2019/06/18 14:50 UTC NOAA

ESDF 181450Z 19010KT CAVOK 22/12 Q1018


Station Type Date Time Source
ESDF Decoded METAR 2019/06/18 14:50 UTC NOAA

Ronneby, Sweden (ESDF) 56-16N 015-17E 74M
Jun 18, 2019 - 10:50 AM EDT / 2019.06.18 1450 UTC
Wind: from the S (190 degrees) at 12 MPH (10 KT):0
Visibility: greater than 7 mile(s):0
Temperature: 71 F (22 C)
Dew Point: 53 F (12 C)
Relative Humidity: 53%
Pressure (altimeter): 30.06 in. Hg (1018 hPa)
ob: ESDF 181450Z 19010KT CAVOK 22/12 Q1018
cycle: 15

Station Type Date Time Source
ESDF TAF 2018/05/29 12:27 UTC NOAA

TAF TAF ESDF 291425Z 2912/2924 07008KT CAVOK
RMK MIL

Example: see airport list